createdAt,value
2023-02-08T00:00:54.868Z,12.13
2023-02-08T00:03:21.896Z,9.90
2023-02-08T00:05:49.093Z,11.40
2023-02-08T00:08:16.511Z,9.80
2023-02-08T00:10:44.085Z,14.77
2023-02-08T00:13:11.124Z,10.50
2023-02-08T00:15:42.326Z,10.50
2023-02-08T00:18:09.583Z,11.93
2023-02-08T00:20:40.038Z,12.80
2023-02-08T00:23:06.990Z,12.43
2023-02-08T00:25:33.859Z,13.87
2023-02-08T00:28:01.778Z,11.37
2023-02-08T00:30:29.999Z,13.33
2023-02-08T00:32:56.773Z,11.67
2023-02-08T00:35:23.570Z,11.30
2023-02-08T00:37:50.225Z,12.20
2023-02-08T00:40:17.005Z,12.33
2023-02-08T00:42:43.826Z,14.33
2023-02-08T00:45:10.540Z,12.43
2023-02-08T00:47:37.402Z,14.20
2023-02-08T00:50:05.521Z,13.37
2023-02-08T00:52:32.655Z,14.47
2023-02-08T00:54:59.601Z,14.37
2023-02-08T00:57:26.295Z,15.57
2023-02-08T00:59:52.965Z,14.80
2023-02-08T01:02:19.689Z,12.00
2023-02-08T01:04:46.445Z,13.17
2023-02-08T01:07:13.084Z,12.20
2023-02-08T01:09:39.832Z,13.17
2023-02-08T01:12:06.683Z,13.77
2023-02-08T01:14:33.612Z,14.27
2023-02-08T01:17:00.312Z,13.17
2023-02-08T01:19:27.405Z,17.23
2023-02-08T01:21:54.181Z,12.73
2023-02-08T01:24:20.893Z,15.83
2023-02-08T01:26:47.821Z,13.70
2023-02-08T01:29:15.848Z,16.07
2023-02-08T01:31:44.183Z,12.43
2023-02-08T01:34:11.969Z,14.93
2023-02-08T01:36:39.555Z,12.27
2023-02-08T01:39:07.424Z,13.70
2023-02-08T01:41:37.501Z,15.73
2023-02-08T01:44:17.540Z,12.70
2023-02-08T01:46:51.114Z,10.80
2023-02-08T01:49:32.278Z,11.87
2023-02-08T01:52:03.792Z,13.80
2023-02-08T01:54:38.878Z,14.27
2023-02-08T01:57:06.036Z,15.17
2023-02-08T01:59:40.457Z,13.10
2023-02-08T02:02:12.268Z,11.17
2023-02-08T02:04:39.417Z,11.37
2023-02-08T02:07:06.332Z,18.80
2023-02-08T02:09:47.386Z,13.47
2023-02-08T02:12:14.559Z,11.87
2023-02-08T02:14:42.269Z,14.13
2023-02-08T02:17:12.751Z,15.90
2023-02-08T02:20:03.573Z,11.50
2023-02-08T02:22:57.414Z,17.20
2023-02-08T02:25:41.595Z,15.73
2023-02-08T02:28:21.358Z,11.10
2023-02-08T02:31:07.779Z,13.43
2023-02-08T02:33:40.002Z,13.70
2023-02-08T02:36:22.023Z,14.40
2023-02-08T02:39:12.098Z,13.93
2023-02-08T02:42:19.907Z,11.77
2023-02-08T02:45:24.380Z,12.30
2023-02-08T02:48:02.945Z,11.40
2023-02-08T02:50:36.237Z,12.77
2023-02-08T02:53:28.823Z,13.13
2023-02-08T02:56:08.760Z,13.80
2023-02-08T02:58:38.336Z,15.60
2023-02-08T03:01:05.143Z,14.23
2023-02-08T03:03:34.286Z,13.93
2023-02-08T03:06:07.144Z,11.97
2023-02-08T03:08:39.662Z,13.43
2023-02-08T03:11:20.662Z,12.77
2023-02-08T03:13:54.958Z,14.60
2023-02-08T03:16:47.737Z,13.17
2023-02-08T03:19:43.658Z,17.57
2023-02-08T03:22:15.613Z,14.17
2023-02-08T03:25:08.990Z,12.60
2023-02-08T03:27:48.847Z,13.90
2023-02-08T03:30:39.075Z,14.27
2023-02-08T03:33:17.873Z,12.93
2023-02-08T03:35:50.167Z,11.63
2023-02-08T03:38:24.606Z,12.50
2023-02-08T03:40:53.521Z,13.83
2023-02-08T03:43:36.627Z,12.20
2023-02-08T03:46:26.412Z,14.00
2023-02-08T03:48:59.568Z,14.73
2023-02-08T03:51:29.892Z,12.13
2023-02-08T03:53:59.358Z,12.17
2023-02-08T03:56:54.763Z,14.77
2023-02-08T03:59:26.988Z,11.57
2023-02-08T04:02:05.861Z,12.67
2023-02-08T04:04:44.985Z,12.77
2023-02-08T04:07:11.901Z,12.63
2023-02-08T04:09:38.994Z,12.23
2023-02-08T04:12:06.269Z,13.70
2023-02-08T04:14:32.993Z,14.07
2023-02-08T04:16:59.714Z,14.17
2023-02-08T04:19:26.852Z,14.67
2023-02-08T04:21:53.780Z,12.40
2023-02-08T04:24:20.799Z,12.70
2023-02-08T04:26:47.776Z,12.67
2023-02-08T04:29:14.952Z,11.13
2023-02-08T04:31:42.105Z,10.60
2023-02-08T04:34:08.839Z,11.17
2023-02-08T04:36:35.597Z,12.17
2023-02-08T04:39:02.465Z,11.90
2023-02-08T04:41:29.185Z,10.73
2023-02-08T04:43:55.898Z,12.00
2023-02-08T04:46:22.648Z,12.67
2023-02-08T04:48:50.028Z,10.03
2023-02-08T04:51:16.790Z,11.53
2023-02-08T04:53:43.516Z,14.17
2023-02-08T04:56:10.198Z,11.97
2023-02-08T04:58:37.017Z,11.20
2023-02-08T05:01:12.618Z,11.20
2023-02-08T05:03:39.338Z,11.87
2023-02-08T05:06:06.363Z,13.33
2023-02-08T05:08:33.020Z,10.90
2023-02-08T05:10:59.707Z,10.87
2023-02-08T05:13:26.444Z,11.73
2023-02-08T05:15:53.232Z,13.20
2023-02-08T05:18:20.094Z,10.27
2023-02-08T05:20:57.713Z,10.10
2023-02-08T05:23:25.069Z,10.27
2023-02-08T05:25:52.216Z,10.30
2023-02-08T05:28:19.669Z,12.50
2023-02-08T05:30:46.819Z,12.83
2023-02-08T05:33:14.047Z,12.07
2023-02-08T05:35:41.271Z,10.77
2023-02-08T05:38:08.043Z,11.17
2023-02-08T05:40:34.935Z,12.70
2023-02-08T05:43:01.628Z,13.20
2023-02-08T05:45:28.493Z,10.30
2023-02-08T05:47:55.195Z,10.60
2023-02-08T05:50:21.905Z,13.03
2023-02-08T05:52:48.571Z,11.60
2023-02-08T05:55:15.358Z,12.50
2023-02-08T05:57:42.029Z,11.17
2023-02-08T06:00:09.618Z,13.73
2023-02-08T06:02:37.246Z,13.10
2023-02-08T06:05:03.995Z,13.80
2023-02-08T06:07:30.708Z,10.70
2023-02-08T06:09:57.361Z,13.97
2023-02-08T06:12:24.092Z,11.77
2023-02-08T06:14:50.812Z,11.80
2023-02-08T06:17:17.528Z,12.53
2023-02-08T06:19:44.201Z,13.53
2023-02-08T06:22:10.863Z,13.27
2023-02-08T06:24:37.545Z,12.43
2023-02-08T06:27:04.246Z,13.87
2023-02-08T06:29:30.920Z,10.70
2023-02-08T06:31:57.759Z,14.47
2023-02-08T06:34:24.504Z,12.63
2023-02-08T06:36:51.180Z,12.10
2023-02-08T06:39:17.915Z,17.77
2023-02-08T06:41:44.559Z,12.63
2023-02-08T06:44:11.750Z,12.93
2023-02-08T06:46:38.405Z,12.87
2023-02-08T06:49:05.104Z,14.07
2023-02-08T06:51:32.169Z,13.90
2023-02-08T06:53:58.849Z,11.17
2023-02-08T06:56:25.571Z,14.17
2023-02-08T06:58:52.242Z,14.20
2023-02-08T07:01:19.048Z,13.67
2023-02-08T07:03:45.774Z,12.67
2023-02-08T07:06:14.593Z,14.77
2023-02-08T07:08:41.640Z,13.77
2023-02-08T07:11:14.969Z,13.53
2023-02-08T07:13:42.095Z,16.63
2023-02-08T07:16:10.101Z,15.93
2023-02-08T07:18:37.453Z,17.67
2023-02-08T07:21:04.455Z,13.97
2023-02-08T07:23:31.581Z,11.97
2023-02-08T07:26:09.169Z,14.00
2023-02-08T07:28:36.930Z,12.10
2023-02-08T07:31:08.537Z,20.23
2023-02-08T07:33:35.701Z,14.73
2023-02-08T07:36:03.347Z,17.00
2023-02-08T07:38:30.109Z,13.17
2023-02-08T07:41:12.022Z,13.97
2023-02-08T07:43:40.210Z,14.70
2023-02-08T07:46:16.848Z,14.37
2023-02-08T07:48:44.105Z,13.47
2023-02-08T07:51:11.603Z,13.00
2023-02-08T07:53:39.160Z,13.37
2023-02-08T07:56:06.441Z,11.20
2023-02-08T07:58:33.287Z,14.33
2023-02-08T08:01:06.887Z,12.57
2023-02-08T08:03:39.243Z,12.17
2023-02-08T08:06:06.463Z,11.00
2023-02-08T08:08:33.622Z,12.43
2023-02-08T08:11:03.428Z,15.67
2023-02-08T08:13:30.444Z,13.77
2023-02-08T08:15:58.404Z,14.30
2023-02-08T08:18:25.546Z,16.03
2023-02-08T08:20:52.188Z,13.70
2023-02-08T08:23:19.927Z,13.90
2023-02-08T08:25:46.733Z,15.07
2023-02-08T08:28:13.813Z,13.37
2023-02-08T08:30:44.538Z,13.13
2023-02-08T08:33:14.015Z,12.57
2023-02-08T08:35:42.558Z,13.17
2023-02-08T08:38:09.672Z,16.57
2023-02-08T08:40:36.831Z,14.47
2023-02-08T08:43:03.957Z,16.03
2023-02-08T08:45:31.231Z,13.80
2023-02-08T08:48:00.551Z,12.33
2023-02-08T08:50:27.420Z,10.97
2023-02-08T08:52:54.158Z,10.43
2023-02-08T08:55:21.371Z,16.73
2023-02-08T08:57:48.061Z,10.83
2023-02-08T09:00:15.191Z,11.80
2023-02-08T09:02:41.971Z,13.50
2023-02-08T09:05:09.180Z,13.07
2023-02-08T09:07:36.183Z,10.20
2023-02-08T09:10:03.642Z,9.80
2023-02-08T09:12:30.510Z,12.30
2023-02-08T09:14:57.441Z,9.40
2023-02-08T09:17:24.766Z,10.50
2023-02-08T09:19:52.027Z,10.53
2023-02-08T09:22:19.860Z,11.20
2023-02-08T09:24:46.880Z,9.20
2023-02-08T09:27:14.840Z,9.33
2023-02-08T09:29:41.687Z,10.93
2023-02-08T09:32:10.515Z,11.53
2023-02-08T09:34:37.747Z,13.87
2023-02-08T09:37:06.181Z,11.07
2023-02-08T09:39:33.410Z,12.93
2023-02-08T09:42:05.926Z,13.97
2023-02-08T09:44:51.301Z,9.00
2023-02-08T09:47:44.234Z,7.83
2023-02-08T09:50:25.060Z,8.77
2023-02-08T09:53:32.581Z,9.70
2023-02-08T09:56:11.479Z,9.00
2023-02-08T09:58:42.997Z,10.77
2023-02-08T10:01:18.618Z,10.23
2023-02-08T10:03:47.140Z,8.80
2023-02-08T10:06:19.591Z,9.37
2023-02-08T10:08:50.646Z,7.80
2023-02-08T10:11:59.400Z,8.90
2023-02-08T10:14:51.134Z,7.90
2023-02-08T10:17:52.339Z,7.83
2023-02-08T10:20:24.995Z,7.60
2023-02-08T10:23:20.466Z,10.77
2023-02-08T10:26:06.083Z,12.67
2023-02-08T10:28:54.507Z,9.37
2023-02-08T10:31:34.821Z,15.20
2023-02-08T10:34:02.971Z,9.40
2023-02-08T10:36:41.920Z,10.17
2023-02-08T10:39:17.773Z,6.67
2023-02-08T10:41:45.199Z,7.17
2023-02-08T10:44:25.333Z,7.20
2023-02-08T10:47:00.748Z,9.00
2023-02-08T10:49:47.797Z,7.47
2023-02-08T10:52:14.993Z,7.53
2023-02-08T10:54:41.791Z,7.67
2023-02-08T10:57:20.353Z,6.33
2023-02-08T10:59:55.080Z,8.47
2023-02-08T11:02:27.452Z,7.33
2023-02-08T11:05:12.331Z,7.77
2023-02-08T11:07:39.591Z,8.00
2023-02-08T11:10:15.931Z,6.47
2023-02-08T11:12:43.693Z,7.37
2023-02-08T11:15:50.064Z,5.80
2023-02-08T11:18:35.524Z,6.93
2023-02-08T11:21:10.475Z,5.70
2023-02-08T11:23:42.487Z,6.03
2023-02-08T11:26:15.417Z,6.90
2023-02-08T11:28:42.554Z,5.67
2023-02-08T11:31:20.951Z,4.63
2023-02-08T11:34:01.695Z,6.13
2023-02-08T11:36:32.392Z,8.10
2023-02-08T11:39:02.499Z,4.97
2023-02-08T11:41:29.927Z,6.77
2023-02-08T11:44:03.772Z,6.97
2023-02-08T11:46:35.228Z,5.37
2023-02-08T11:49:03.580Z,8.80
2023-02-08T11:51:32.445Z,4.33
2023-02-08T11:54:00.877Z,5.97
2023-02-08T11:56:30.713Z,8.03
2023-02-08T11:59:18.834Z,5.27
2023-02-08T12:01:46.075Z,5.43
2023-02-08T12:04:17.528Z,5.17
2023-02-08T12:07:15.298Z,5.40
2023-02-08T12:09:42.452Z,6.67
2023-02-08T12:12:35.804Z,8.90
2023-02-08T12:15:24.447Z,6.83
2023-02-08T12:18:29.303Z,5.40
2023-02-08T12:21:16.042Z,7.60
2023-02-08T12:24:17.715Z,5.40
2023-02-08T12:26:52.902Z,5.77
2023-02-08T12:29:47.461Z,6.97
2023-02-08T12:32:33.856Z,5.37
2023-02-08T12:35:36.922Z,5.73
2023-02-08T12:38:42.225Z,6.10
2023-02-08T12:41:27.059Z,5.63
2023-02-08T12:43:59.182Z,4.80
2023-02-08T12:46:58.408Z,5.40
2023-02-08T12:49:32.132Z,7.30
2023-02-08T12:52:18.104Z,6.00
2023-02-08T12:55:06.361Z,5.23
2023-02-08T12:57:33.440Z,4.97
2023-02-08T13:00:05.744Z,4.97
2023-02-08T13:02:44.483Z,6.40
2023-02-08T13:05:21.852Z,5.30
2023-02-08T13:07:51.488Z,7.50
2023-02-08T13:10:27.004Z,6.40
2023-02-08T13:31:11.227Z,4.67
2023-02-08T13:33:55.602Z,6.27
2023-02-08T13:36:31.428Z,3.87
2023-02-08T13:39:05.450Z,3.90
2023-02-08T13:41:33.686Z,3.93
2023-02-08T13:44:03.173Z,4.73
2023-02-08T13:46:39.059Z,3.07
2023-02-08T13:49:06.223Z,3.93
2023-02-08T13:51:33.385Z,3.80
2023-02-08T13:54:00.749Z,5.67
2023-02-08T13:56:44.418Z,4.97
2023-02-08T13:59:41.826Z,4.33
2023-02-08T14:02:22.167Z,4.27
2023-02-08T14:04:50.989Z,3.80
2023-02-08T14:07:32.833Z,5.93
2023-02-08T14:10:04.798Z,4.43
2023-02-08T14:12:34.413Z,4.70
2023-02-08T14:15:16.743Z,5.53
2023-02-08T14:17:50.012Z,5.07
2023-02-08T14:20:28.211Z,4.33
2023-02-08T14:22:58.587Z,3.80
2023-02-08T14:25:38.532Z,6.60
2023-02-08T14:28:06.313Z,4.27
2023-02-08T14:30:36.432Z,4.60
2023-02-08T14:33:07.356Z,4.03
2023-02-08T14:35:37.634Z,4.60
2023-02-08T14:38:19.590Z,3.77
2023-02-08T14:40:57.411Z,6.53
2023-02-08T14:43:38.858Z,5.40
2023-02-08T14:46:43.042Z,3.63
2023-02-08T14:49:16.853Z,5.77
2023-02-08T14:51:51.842Z,5.23
2023-02-08T14:54:37.538Z,4.07
2023-02-08T14:57:13.648Z,4.40
2023-02-08T14:59:42.093Z,4.23
2023-02-08T15:02:19.982Z,3.00
2023-02-08T15:04:46.847Z,5.70
2023-02-08T15:07:47.540Z,4.90
2023-02-08T15:10:16.600Z,5.60
2023-02-08T15:12:57.634Z,4.03
2023-02-08T15:15:37.492Z,4.40
2023-02-08T15:18:07.232Z,4.17
2023-02-08T15:20:35.966Z,3.30
2023-02-08T15:23:18.373Z,3.97
2023-02-08T15:25:58.835Z,4.20
2023-02-08T15:28:28.847Z,4.13
2023-02-08T15:31:00.618Z,3.60
2023-02-08T15:33:27.912Z,3.80
2023-02-08T15:36:27.199Z,4.37
2023-02-08T15:38:56.294Z,3.83
2023-02-08T15:41:31.786Z,4.27
2023-02-08T15:44:21.962Z,4.03
2023-02-08T15:49:37.792Z,6.10
2023-02-08T15:52:06.019Z,4.50
2023-02-08T15:54:32.861Z,4.73
2023-02-08T15:57:07.492Z,6.53
2023-02-08T15:59:39.012Z,4.40
2023-02-08T16:02:27.544Z,4.33
2023-02-08T16:04:55.031Z,6.00
2023-02-08T16:07:29.004Z,5.70
2023-02-08T16:09:57.157Z,4.63
2023-02-08T16:12:26.195Z,4.07
2023-02-08T16:14:56.578Z,3.70
2023-02-08T16:17:44.147Z,4.40
2023-02-08T16:20:35.119Z,4.23
2023-02-08T16:23:24.785Z,5.23
2023-02-08T16:25:51.824Z,5.37
2023-02-08T16:28:33.597Z,6.80
2023-02-08T16:31:04.509Z,5.77
2023-02-08T16:33:32.858Z,5.27
2023-02-08T16:36:03.835Z,6.30
2023-02-08T16:38:33.857Z,4.53
2023-02-08T16:41:12.182Z,7.13
2023-02-08T16:43:44.624Z,5.30
2023-02-08T16:46:11.410Z,6.27
2023-02-08T16:48:40.837Z,4.03
2023-02-08T16:51:14.762Z,4.50
2023-02-08T16:53:42.766Z,5.67
2023-02-08T16:56:10.955Z,4.93
2023-02-08T16:58:38.177Z,5.87
2023-02-08T17:01:05.472Z,6.33
2023-02-08T17:03:33.051Z,7.07
2023-02-08T17:06:00.923Z,6.60
2023-02-08T17:08:27.828Z,5.27
2023-02-08T17:10:58.843Z,6.63
2023-02-08T17:13:29.605Z,6.33
2023-02-08T17:16:00.182Z,6.47
2023-02-08T17:18:27.489Z,5.80
2023-02-08T17:20:59.417Z,5.27
2023-02-08T17:23:26.985Z,5.40
2023-02-08T17:25:53.885Z,8.17
2023-02-08T17:28:21.601Z,9.17
2023-02-08T17:30:49.692Z,7.90
2023-02-08T17:33:19.821Z,8.87
2023-02-08T17:35:51.953Z,8.20
2023-02-08T17:38:20.353Z,6.63
2023-02-08T17:40:47.646Z,7.37
2023-02-08T17:43:14.603Z,7.73
2023-02-08T17:45:43.411Z,7.00
2023-02-08T17:48:13.245Z,9.77
2023-02-08T17:50:43.721Z,8.17
2023-02-08T17:53:10.813Z,7.57
2023-02-08T17:55:37.958Z,11.17
2023-02-08T17:58:05.080Z,9.43
2023-02-08T18:00:34.635Z,8.53
2023-02-08T18:03:02.983Z,7.30
2023-02-08T18:05:30.169Z,7.27
2023-02-08T18:07:57.391Z,12.90
2023-02-08T18:10:25.245Z,10.73
2023-02-08T18:12:52.104Z,12.13
2023-02-08T18:15:22.052Z,10.23
2023-02-08T18:17:52.773Z,10.37
2023-02-08T18:20:19.999Z,9.10
2023-02-08T18:22:47.183Z,8.00
2023-02-08T18:25:14.500Z,9.03
2023-02-08T18:27:41.544Z,10.67
2023-02-08T18:30:10.721Z,8.30
2023-02-08T18:32:37.484Z,9.20
2023-02-08T18:35:06.749Z,8.80
2023-02-08T18:37:34.328Z,8.00
2023-02-08T18:40:01.469Z,7.03
2023-02-08T18:42:28.606Z,9.83
2023-02-08T18:44:55.544Z,11.03
2023-02-08T18:47:22.238Z,9.03
2023-02-08T18:49:53.991Z,9.10
2023-02-08T18:52:21.955Z,9.50
2023-02-08T18:54:49.020Z,9.70
2023-02-08T18:57:15.872Z,7.57
2023-02-08T18:59:42.932Z,8.57
2023-02-08T19:02:18.141Z,10.93
2023-02-08T19:04:45.054Z,8.07
2023-02-08T19:07:12.194Z,8.50
2023-02-08T19:09:39.505Z,9.30
2023-02-08T19:12:07.457Z,8.27
2023-02-08T19:14:34.755Z,8.33
2023-02-08T19:17:03.106Z,9.07
2023-02-08T19:19:30.279Z,7.67
2023-02-08T19:21:57.075Z,7.80
2023-02-08T19:24:23.997Z,10.37
2023-02-08T19:26:51.181Z,7.90
2023-02-08T19:29:21.833Z,8.77
2023-02-08T19:31:50.417Z,10.10
2023-02-08T19:34:18.001Z,8.97
2023-02-08T19:36:49.238Z,8.70
2023-02-08T19:39:18.708Z,8.80
2023-02-08T19:41:46.741Z,11.53
2023-02-08T19:44:16.130Z,9.47
2023-02-08T19:46:50.881Z,8.70
2023-02-08T19:49:18.197Z,9.67
2023-02-08T19:51:45.222Z,7.77
2023-02-08T19:54:14.564Z,8.57
2023-02-08T19:56:41.721Z,9.10
2023-02-08T19:59:16.248Z,10.90
2023-02-08T20:01:43.017Z,8.07
2023-02-08T20:04:09.688Z,9.07
2023-02-08T20:06:41.270Z,8.63
2023-02-08T20:09:08.452Z,8.93
2023-02-08T20:11:45.166Z,13.67
2023-02-08T20:14:22.030Z,9.03
2023-02-08T20:16:49.009Z,12.13
2023-02-08T20:19:15.898Z,12.27
2023-02-08T20:21:45.004Z,10.77
2023-02-08T20:24:12.276Z,8.93
2023-02-08T20:26:40.993Z,10.03
2023-02-08T20:29:08.694Z,10.17
2023-02-08T20:31:38.424Z,10.33
2023-02-08T20:34:08.171Z,9.43
2023-02-08T20:36:39.834Z,10.23
2023-02-08T20:39:09.066Z,11.20
2023-02-08T20:41:36.129Z,12.23
2023-02-08T20:44:02.925Z,11.67
2023-02-08T20:46:33.749Z,9.60
2023-02-08T20:49:03.517Z,10.57
2023-02-08T20:51:30.804Z,8.40
2023-02-08T20:53:59.059Z,11.57
2023-02-08T20:56:28.968Z,10.10
2023-02-08T20:58:55.909Z,8.60
2023-02-08T21:01:27.746Z,8.17
2023-02-08T21:03:55.986Z,9.07
2023-02-08T21:06:29.565Z,10.37
2023-02-08T21:09:02.477Z,10.30
2023-02-08T21:11:31.109Z,10.20
2023-02-08T21:13:58.437Z,9.63
2023-02-08T21:16:25.448Z,10.43
2023-02-08T21:18:52.694Z,10.20
2023-02-08T21:21:20.120Z,10.53
2023-02-08T21:23:46.960Z,10.47
2023-02-08T21:26:16.474Z,8.47
2023-02-08T21:28:43.800Z,8.80
2023-02-08T21:31:16.037Z,8.93
2023-02-08T21:33:44.054Z,9.00
2023-02-08T21:36:14.340Z,9.33
2023-02-08T21:38:41.820Z,8.73
2023-02-08T21:41:10.736Z,9.37
2023-02-08T21:43:37.917Z,7.80
2023-02-08T21:46:05.785Z,9.03
2023-02-08T21:48:53.005Z,9.07
2023-02-08T21:51:39.277Z,10.13
2023-02-08T21:54:24.559Z,9.87
2023-02-08T21:56:51.523Z,10.10
2023-02-08T21:59:18.179Z,9.33
2023-02-08T22:01:44.947Z,7.83
2023-02-08T22:04:11.662Z,11.20
2023-02-08T22:06:38.415Z,9.33
2023-02-08T22:09:05.098Z,10.70
2023-02-08T22:11:31.776Z,12.03
2023-02-08T22:13:58.477Z,13.03
2023-02-08T22:16:25.260Z,12.33
2023-02-08T22:18:52.048Z,13.40
2023-02-08T22:21:18.717Z,13.27
2023-02-08T22:23:45.403Z,13.93
2023-02-08T22:26:12.979Z,12.23
2023-02-08T22:28:39.712Z,13.90
2023-02-08T22:31:06.534Z,14.87
2023-02-08T22:33:33.461Z,12.33
2023-02-08T22:36:00.800Z,7.63
2023-02-08T22:38:28.101Z,9.10
2023-02-08T22:40:54.824Z,10.60
2023-02-08T22:43:21.500Z,12.33
2023-02-08T22:45:57.311Z,9.80
2023-02-08T22:48:24.067Z,10.90
2023-02-08T22:50:50.805Z,8.77
2023-02-08T22:53:19.847Z,10.23
2023-02-08T22:55:50.523Z,10.57
2023-02-08T22:58:17.608Z,13.63
2023-02-08T23:00:46.168Z,9.73
2023-02-08T23:03:14.288Z,10.47
2023-02-08T23:05:47.303Z,9.73
2023-02-08T23:08:15.968Z,9.67
2023-02-08T23:10:43.179Z,8.93
2023-02-08T23:13:10.412Z,11.77
2023-02-08T23:15:39.702Z,10.33
2023-02-08T23:18:07.772Z,11.17
2023-02-08T23:20:38.329Z,10.47
2023-02-08T23:23:05.289Z,11.37
2023-02-08T23:25:32.601Z,8.83
2023-02-08T23:27:59.443Z,10.47
2023-02-08T23:30:26.192Z,9.70
2023-02-08T23:32:52.887Z,12.43
2023-02-08T23:35:19.743Z,10.87
2023-02-08T23:37:46.458Z,8.90
2023-02-08T23:40:13.362Z,10.83
2023-02-08T23:42:40.067Z,11.33
2023-02-08T23:45:07.344Z,11.03
2023-02-08T23:47:34.697Z,12.43
2023-02-08T23:50:01.372Z,10.60
2023-02-08T23:52:28.028Z,9.77
2023-02-08T23:54:54.719Z,10.97
2023-02-08T23:57:21.457Z,10.90
2023-02-08T23:59:48.195Z,12.73
